sensor_id;sensor_type;location;lat;lon;timestamp;pressure;altitude;pressure_sealevel;temperature;humidity
17254;BME280;32542;52.832;13.816;2023-01-26T00:00:19;102357.00;;;20.69;48.57
17254;BME280;32542;52.832;13.816;2023-01-26T00:03:21;102351.69;;;20.69;48.41
17254;BME280;32542;52.832;13.816;2023-01-26T00:06:25;102340.16;;;20.69;48.38
17254;BME280;32542;52.832;13.816;2023-01-26T00:09:29;102340.16;;;20.69;48.40
17254;BME280;32542;52.832;13.816;2023-01-26T00:12:32;102330.38;;;20.69;48.42
17254;BME280;32542;52.832;13.816;2023-01-26T00:15:35;102323.28;;;20.68;48.42
17254;BME280;32542;52.832;13.816;2023-01-26T00:18:39;102314.41;;;20.69;48.35
17254;BME280;32542;52.832;13.816;2023-01-26T00:21:42;102307.31;;;20.68;48.29
17254;BME280;32542;52.832;13.816;2023-01-26T00:24:46;102305.53;;;20.69;48.34
17254;BME280;32542;52.832;13.816;2023-01-26T00:27:49;102305.53;;;20.69;48.36
17254;BME280;32542;52.832;13.816;2023-01-26T00:30:52;102298.44;;;20.69;48.32
17254;BME280;32542;52.832;13.816;2023-01-26T00:33:57;102301.09;;;20.69;48.45
17254;BME280;32542;52.832;13.816;2023-01-26T00:36:59;102297.50;;;20.70;48.22
17254;BME280;32542;52.832;13.816;2023-01-26T00:40:04;102289.53;;;20.70;48.19
17254;BME280;32542;52.832;13.816;2023-01-26T00:43:07;102293.97;;;20.70;48.42
17254;BME280;32542;52.832;13.816;2023-01-26T00:46:10;102299.28;;;20.70;48.31
17254;BME280;32542;52.832;13.816;2023-01-26T00:49:13;102299.28;;;20.70;48.31
17254;BME280;32542;52.832;13.816;2023-01-26T00:52:16;102303.75;;;20.69;48.31
17254;BME280;32542;52.832;13.816;2023-01-26T00:55:20;102302.88;;;20.69;48.15
17254;BME280;32542;52.832;13.816;2023-01-26T00:58:23;102304.66;;;20.68;48.23
17254;BME280;32542;52.832;13.816;2023-01-26T01:01:26;102304.66;;;20.68;48.35
17254;BME280;32542;52.832;13.816;2023-01-26T01:04:29;102313.56;;;20.67;48.27
17254;BME280;32542;52.832;13.816;2023-01-26T01:07:34;102308.25;;;20.67;48.29
17254;BME280;32542;52.832;13.816;2023-01-26T01:10:38;102302.94;;;20.67;48.33
17254;BME280;32542;52.832;13.816;2023-01-26T01:13:41;102296.66;;;20.68;48.05
17254;BME280;32542;52.832;13.816;2023-01-26T01:16:47;102294.00;;;20.68;48.17
17254;BME280;32542;52.832;13.816;2023-01-26T01:19:49;102280.69;;;20.68;48.13
17254;BME280;32542;52.832;13.816;2023-01-26T01:22:55;102275.38;;;20.68;48.12
17254;BME280;32542;52.832;13.816;2023-01-26T01:26:01;102274.47;;;20.69;48.13
17254;BME280;32542;52.832;13.816;2023-01-26T01:29:04;102270.06;;;20.68;48.17
17254;BME280;32542;52.832;13.816;2023-01-26T01:32:08;102267.38;;;20.68;48.05
17254;BME280;32542;52.832;13.816;2023-01-26T01:35:10;102270.06;;;20.68;47.96
17254;BME280;32542;52.832;13.816;2023-01-26T01:38:13;102262.09;;;20.67;47.94
17254;BME280;32542;52.832;13.816;2023-01-26T01:41:19;102255.00;;;20.67;47.89
17254;BME280;32542;52.832;13.816;2023-01-26T01:44:24;102264.72;;;20.68;48.02
17254;BME280;32542;52.832;13.816;2023-01-26T01:47:27;102260.34;;;20.67;48.03
17254;BME280;32542;52.832;13.816;2023-01-26T01:50:35;102254.09;;;20.68;48.02
17254;BME280;32542;52.832;13.816;2023-01-26T01:53:42;102249.63;;;20.69;47.92
17254;BME280;32542;52.832;13.816;2023-01-26T01:56:50;102246.97;;;20.69;47.93
17254;BME280;32542;52.832;13.816;2023-01-26T01:59:59;102239.88;;;20.69;47.98
17254;BME280;32542;52.832;13.816;2023-01-26T02:03:13;102243.44;;;20.68;47.84
17254;BME280;32542;52.832;13.816;2023-01-26T02:06:22;102244.31;;;20.69;47.92
17254;BME280;32542;52.832;13.816;2023-01-26T02:09:32;102238.94;;;20.70;47.93
17254;BME280;32542;52.832;13.816;2023-01-26T02:12:57;102242.53;;;20.69;47.98
17254;BME280;32542;52.832;13.816;2023-01-26T02:16:01;102231.88;;;20.69;47.87
17254;BME280;32542;52.832;13.816;2023-01-26T02:19:23;102228.28;;;20.70;47.84
17254;BME280;32542;52.832;13.816;2023-01-26T02:22:36;102224.75;;;20.70;48.04
17254;BME280;32542;52.832;13.816;2023-01-26T02:28:55;102208.78;;;20.70;47.94
17254;BME280;32542;52.832;13.816;2023-01-26T02:31:59;102212.31;;;20.70;47.98
17254;BME280;32542;52.832;13.816;2023-01-26T02:35:02;102205.22;;;20.71;47.86
17254;BME280;32542;52.832;13.816;2023-01-26T02:38:06;102205.22;;;20.71;47.95
17254;BME280;32542;52.832;13.816;2023-01-26T02:41:11;102205.22;;;20.71;47.96
17254;BME280;32542;52.832;13.816;2023-01-26T02:44:38;102199.00;;;20.70;47.83
17254;BME280;32542;52.832;13.816;2023-01-26T02:47:42;102200.78;;;20.71;47.95
17254;BME280;32542;52.832;13.816;2023-01-26T02:50:46;102198.13;;;20.71;47.92
17254;BME280;32542;52.832;13.816;2023-01-26T02:53:48;102190.16;;;20.70;48.03
17254;BME280;32542;52.832;13.816;2023-01-26T02:56:51;102191.03;;;20.70;47.94
17254;BME280;32542;52.832;13.816;2023-01-26T02:59:54;102187.47;;;20.71;47.97
17254;BME280;32542;52.832;13.816;2023-01-26T03:02:58;102177.72;;;20.70;47.86
17254;BME280;32542;52.832;13.816;2023-01-26T03:06:04;102183.91;;;20.71;47.99
17254;BME280;32542;52.832;13.816;2023-01-26T03:09:07;102182.16;;;20.71;47.96
17254;BME280;32542;52.832;13.816;2023-01-26T03:12:10;102174.16;;;20.71;48.00
17254;BME280;32542;52.832;13.816;2023-01-26T03:15:15;102174.16;;;20.71;47.80
17254;BME280;32542;52.832;13.816;2023-01-26T03:18:35;102179.47;;;20.71;47.83
17254;BME280;32542;52.832;13.816;2023-01-26T03:21:56;102175.06;;;20.70;47.88
17254;BME280;32542;52.832;13.816;2023-01-26T03:25:25;102185.69;;;20.70;47.93
17254;BME280;32542;52.832;13.816;2023-01-26T03:28:51;102176.84;;;20.70;47.91
17254;BME280;32542;52.832;13.816;2023-01-26T03:31:55;102176.84;;;20.70;47.82
17254;BME280;32542;52.832;13.816;2023-01-26T03:35:00;102177.72;;;20.70;47.82
17254;BME280;32542;52.832;13.816;2023-01-26T03:38:03;102175.97;;;20.69;47.92
17254;BME280;32542;52.832;13.816;2023-01-26T03:41:15;102184.88;;;20.68;47.95
17254;BME280;32542;52.832;13.816;2023-01-26T03:44:36;102176.88;;;20.68;47.82
17254;BME280;32542;52.832;13.816;2023-01-26T03:48:04;102184.88;;;20.68;48.00
17254;BME280;32542;52.832;13.816;2023-01-26T03:51:24;102189.28;;;20.69;47.98
17254;BME280;32542;52.832;13.816;2023-01-26T03:54:44;102188.38;;;20.70;47.92
17254;BME280;32542;52.832;13.816;2023-01-26T03:58:05;102175.03;;;20.72;47.82
17254;BME280;32542;52.832;13.816;2023-01-26T04:01:09;102175.88;;;20.72;47.74
17254;BME280;32542;52.832;13.816;2023-01-26T04:04:25;102178.53;;;20.74;47.76
17254;BME280;32542;52.832;13.816;2023-01-26T04:07:45;102169.63;;;20.75;47.80
17254;BME280;32542;52.832;13.816;2023-01-26T04:11:05;102166.91;;;20.76;47.75
17254;BME280;32542;52.832;13.816;2023-01-26T04:14:10;102166.91;;;20.76;47.80
17254;BME280;32542;52.832;13.816;2023-01-26T04:17:34;102159.81;;;20.77;47.67
17254;BME280;32542;52.832;13.816;2023-01-26T04:20:56;102155.34;;;20.77;47.80
17254;BME280;32542;52.832;13.816;2023-01-26T04:24:18;102152.69;;;20.77;47.68
17254;BME280;32542;52.832;13.816;2023-01-26T04:27:27;102152.69;;;20.77;47.83
17254;BME280;32542;52.832;13.816;2023-01-26T04:30:30;102146.50;;;20.77;47.83
17254;BME280;32542;52.832;13.816;2023-01-26T04:33:33;102151.81;;;20.77;47.72
17254;BME280;32542;52.832;13.816;2023-01-26T04:36:38;102143.88;;;20.75;47.74
17254;BME280;32542;52.832;13.816;2023-01-26T04:39:41;102144.78;;;20.74;47.71
17254;BME280;32542;52.832;13.816;2023-01-26T04:42:44;102143.88;;;20.75;47.75
17254;BME280;32542;52.832;13.816;2023-01-26T04:45:56;102130.63;;;20.74;47.76
17254;BME280;32542;52.832;13.816;2023-01-26T04:48:59;102135.06;;;20.73;47.73
17254;BME280;32542;52.832;13.816;2023-01-26T04:52:04;102127.06;;;20.73;47.86
17254;BME280;32542;52.832;13.816;2023-01-26T04:55:08;102127.13;;;20.72;47.71
17254;BME280;32542;52.832;13.816;2023-01-26T04:58:14;102127.13;;;20.72;47.84
17254;BME280;32542;52.832;13.816;2023-01-26T05:01:17;102130.63;;;20.72;47.79
17254;BME280;32542;52.832;13.816;2023-01-26T05:04:20;102131.56;;;20.71;47.90
17254;BME280;32542;52.832;13.816;2023-01-26T05:07:25;102129.78;;;20.72;47.86
17254;BME280;32542;52.832;13.816;2023-01-26T05:10:28;102131.56;;;20.71;47.82
17254;BME280;32542;52.832;13.816;2023-01-26T05:13:49;102120.91;;;20.71;47.82
17254;BME280;32542;52.832;13.816;2023-01-26T05:17:10;102126.25;;;20.71;47.70
17254;BME280;32542;52.832;13.816;2023-01-26T05:20:30;102113.81;;;20.70;47.78
17254;BME280;32542;52.832;13.816;2023-01-26T05:23:48;102115.66;;;20.68;47.84
17254;BME280;32542;52.832;13.816;2023-01-26T05:27:26;102119.25;;;20.67;47.76
17254;BME280;32542;52.832;13.816;2023-01-26T05:30:32;102124.56;;;20.67;47.75
17254;BME280;32542;52.832;13.816;2023-01-26T05:33:36;102116.59;;;20.66;47.72
17254;BME280;32542;52.832;13.816;2023-01-26T05:36:41;102114.00;;;20.64;47.89
17254;BME280;32542;52.832;13.816;2023-01-26T05:39:45;102115.78;;;20.64;47.87
17254;BME280;32542;52.832;13.816;2023-01-26T05:42:48;102121.09;;;20.65;47.85
17254;BME280;32542;52.832;13.816;2023-01-26T05:45:56;102107.78;;;20.65;47.75
17254;BME280;32542;52.832;13.816;2023-01-26T05:48:59;102108.63;;;20.66;47.75
17254;BME280;32542;52.832;13.816;2023-01-26T05:52:01;102115.75;;;20.65;47.67
17254;BME280;32542;52.832;13.816;2023-01-26T05:55:07;102120.19;;;20.65;47.78
17254;BME280;32542;52.832;13.816;2023-01-26T05:58:10;102119.31;;;20.64;47.80
17254;BME280;32542;52.832;13.816;2023-01-26T06:01:13;102119.31;;;20.64;47.80
17254;BME280;32542;52.832;13.816;2023-01-26T06:04:24;102121.09;;;20.65;47.83
17254;BME280;32542;52.832;13.816;2023-01-26T06:07:31;102124.63;;;20.64;47.67
17254;BME280;32542;52.832;13.816;2023-01-26T06:10:43;102134.38;;;20.65;47.76
17254;BME280;32542;52.832;13.816;2023-01-26T06:14:12;102137.91;;;20.66;47.65
17254;BME280;32542;52.832;13.816;2023-01-26T06:17:17;102144.06;;;20.68;47.60
17254;BME280;32542;52.832;13.816;2023-01-26T06:20:23;102147.56;;;20.70;47.56
17254;BME280;32542;52.832;13.816;2023-01-26T06:23:31;102138.66;;;20.71;47.60
17254;BME280;32542;52.832;13.816;2023-01-26T06:26:37;102141.28;;;20.72;47.65
17254;BME280;32542;52.832;13.816;2023-01-26T06:29:40;102133.28;;;20.74;47.54
17254;BME280;32542;52.832;13.816;2023-01-26T06:32:46;102142.13;;;20.74;47.61
17254;BME280;32542;52.832;13.816;2023-01-26T06:35:49;102135.94;;;20.74;47.52
17254;BME280;32542;52.832;13.816;2023-01-26T06:38:53;102132.41;;;20.73;47.63
17254;BME280;32542;52.832;13.816;2023-01-26T06:41:59;102125.28;;;20.74;47.59
17254;BME280;32542;52.832;13.816;2023-01-26T06:45:01;102127.03;;;20.75;47.52
17254;BME280;32542;52.832;13.816;2023-01-26T06:48:04;102133.22;;;20.75;47.61
17254;BME280;32542;52.832;13.816;2023-01-26T06:51:46;102139.44;;;20.74;47.57
17254;BME280;32542;52.832;13.816;2023-01-26T06:54:56;102147.41;;;20.76;47.54
17254;BME280;32542;52.832;13.816;2023-01-26T06:58:28;102146.53;;;20.75;47.53
17254;BME280;32542;52.832;13.816;2023-01-26T07:01:50;102149.19;;;20.75;47.56
17254;BME280;32542;52.832;13.816;2023-01-26T07:04:53;102143.88;;;20.75;47.55
17254;BME280;32542;52.832;13.816;2023-01-26T07:07:55;102142.13;;;20.74;47.55
17254;BME280;32542;52.832;13.816;2023-01-26T07:11:00;102139.50;;;20.73;47.59
17254;BME280;32542;52.832;13.816;2023-01-26T07:14:05;102145.72;;;20.73;47.50
17254;BME280;32542;52.832;13.816;2023-01-26T07:17:08;102144.88;;;20.70;46.70
17254;BME280;32542;52.832;13.816;2023-01-26T07:20:11;102143.28;;;20.64;46.33
17254;BME280;32542;52.832;13.816;2023-01-26T07:23:14;102140.78;;;20.58;45.29
17254;BME280;32542;52.832;13.816;2023-01-26T07:26:17;102142.59;;;20.56;45.54
17254;BME280;32542;52.832;13.816;2023-01-26T07:29:21;102140.78;;;20.58;43.29
17254;BME280;32542;52.832;13.816;2023-01-26T07:32:24;102142.22;;;20.70;43.25
17254;BME280;32542;52.832;13.816;2023-01-26T07:35:28;102142.81;;;20.82;43.40
17254;BME280;32542;52.832;13.816;2023-01-26T07:38:31;102136.22;;;20.95;43.42
17254;BME280;32542;52.832;13.816;2023-01-26T07:41:34;102143.94;;;21.08;43.56
17254;BME280;32542;52.832;13.816;2023-01-26T07:44:58;102136.50;;;21.20;43.54
17254;BME280;32542;52.832;13.816;2023-01-26T07:48:02;102139.72;;;21.31;43.50
17254;BME280;32542;52.832;13.816;2023-01-26T07:51:05;102148.31;;;21.41;43.38
17254;BME280;32542;52.832;13.816;2023-01-26T07:54:10;102150.81;;;21.47;43.49
17254;BME280;32542;52.832;13.816;2023-01-26T07:57:13;102146.31;;;21.49;43.59
17254;BME280;32542;52.832;13.816;2023-01-26T08:00:19;102152.47;;;21.51;43.70
17254;BME280;32542;52.832;13.816;2023-01-26T08:03:23;102154.22;;;21.52;43.77
17254;BME280;32542;52.832;13.816;2023-01-26T08:06:26;102146.22;;;21.52;43.87
17254;BME280;32542;52.832;13.816;2023-01-26T08:09:29;102150.63;;;21.53;44.23
17254;BME280;32542;52.832;13.816;2023-01-26T08:12:33;102148.91;;;21.52;44.30
17254;BME280;32542;52.832;13.816;2023-01-26T08:15:42;102139.13;;;21.51;44.36
17254;BME280;32542;52.832;13.816;2023-01-26T08:18:46;102148.97;;;21.49;44.54
17254;BME280;32542;52.832;13.816;2023-01-26T08:21:49;102150.88;;;21.45;44.72
17254;BME280;32542;52.832;13.816;2023-01-26T08:24:53;102159.81;;;21.43;44.86
17254;BME280;32542;52.832;13.816;2023-01-26T08:27:56;102156.38;;;21.38;45.08
17254;BME280;32542;52.832;13.816;2023-01-26T08:31:04;102151.16;;;21.35;45.22
17254;BME280;32542;52.832;13.816;2023-01-26T08:34:07;102150.41;;;21.31;45.30
17254;BME280;32542;52.832;13.816;2023-01-26T08:37:10;102158.47;;;21.28;45.41
17254;BME280;32542;52.832;13.816;2023-01-26T08:40:13;102151.47;;;21.24;45.69
17254;BME280;32542;52.832;13.816;2023-01-26T08:43:17;102147.09;;;21.22;45.62
17254;BME280;32542;52.832;13.816;2023-01-26T08:46:21;102151.59;;;21.20;45.80
17254;BME280;32542;52.832;13.816;2023-01-26T08:49:24;102153.44;;;21.18;45.79
17254;BME280;32542;52.832;13.816;2023-01-26T08:52:27;102151.66;;;21.17;45.96
17254;BME280;32542;52.832;13.816;2023-01-26T08:55:29;102163.31;;;21.14;45.99
17254;BME280;32542;52.832;13.816;2023-01-26T08:58:33;102157.97;;;21.14;46.11
17254;BME280;32542;52.832;13.816;2023-01-26T09:01:37;102158.88;;;21.13;46.14
17254;BME280;32542;52.832;13.816;2023-01-26T09:04:40;102157.16;;;21.11;46.23
17254;BME280;32542;52.832;13.816;2023-01-26T09:07:44;102162.50;;;21.11;46.21
17254;BME280;32542;52.832;13.816;2023-01-26T09:10:47;102162.59;;;21.08;46.31
17254;BME280;32542;52.832;13.816;2023-01-26T09:13:50;102154.63;;;21.06;46.22
17254;BME280;32542;52.832;13.816;2023-01-26T09:16:58;102152.88;;;21.05;46.53
17254;BME280;32542;52.832;13.816;2023-01-26T09:20:01;102152.94;;;21.04;46.57
17254;BME280;32542;52.832;13.816;2023-01-26T09:23:04;102158.25;;;21.04;46.51
17254;BME280;32542;52.832;13.816;2023-01-26T09:26:07;102156.50;;;21.03;46.56
17254;BME280;32542;52.832;13.816;2023-01-26T09:29:10;102150.31;;;21.00;46.59
17254;BME280;32542;52.832;13.816;2023-01-26T09:32:14;102154.81;;;20.98;46.62
17254;BME280;32542;52.832;13.816;2023-01-26T09:35:17;102147.72;;;20.97;46.64
17254;BME280;32542;52.832;13.816;2023-01-26T09:38:20;102143.31;;;20.96;46.59
17254;BME280;32542;52.832;13.816;2023-01-26T09:41:44;102145.03;;;20.97;46.63
17254;BME280;32542;52.832;13.816;2023-01-26T09:44:55;102143.31;;;20.96;46.77
17254;BME280;32542;52.832;13.816;2023-01-26T09:48:16;102153.97;;;20.96;46.86
17254;BME280;32542;52.832;13.816;2023-01-26T09:51:24;102157.53;;;20.95;46.81
17254;BME280;32542;52.832;13.816;2023-01-26T09:54:32;102154.03;;;20.95;47.00
17254;BME280;32542;52.832;13.816;2023-01-26T09:57:43;102153.13;;;20.94;46.99
17254;BME280;32542;52.832;13.816;2023-01-26T10:00:51;102155.81;;;20.94;47.24
17254;BME280;32542;52.832;13.816;2023-01-26T10:04:02;102153.13;;;20.94;47.21
17254;BME280;32542;52.832;13.816;2023-01-26T10:07:09;102148.72;;;20.93;47.24
17254;BME280;32542;52.832;13.816;2023-01-26T10:10:23;102145.16;;;20.94;47.22
17254;BME280;32542;52.832;13.816;2023-01-26T10:13:28;102146.88;;;20.95;47.24
17254;BME280;32542;52.832;13.816;2023-01-26T10:16:32;102143.38;;;20.95;47.14
17254;BME280;32542;52.832;13.816;2023-01-26T10:19:39;102151.31;;;20.96;47.21
17254;BME280;32542;52.832;13.816;2023-01-26T10:22:45;102145.09;;;20.96;47.14
17254;BME280;32542;52.832;13.816;2023-01-26T10:25:49;102136.22;;;20.95;46.85
17254;BME280;32542;52.832;13.816;2023-01-26T10:28:54;102135.38;;;20.95;47.09
17254;BME280;32542;52.832;13.816;2023-01-26T10:31:57;102122.06;;;20.95;47.09
17254;BME280;32542;52.832;13.816;2023-01-26T10:35:01;102125.56;;;20.95;47.07
17254;BME280;32542;52.832;13.816;2023-01-26T10:38:25;102118.50;;;20.94;47.07
17254;BME280;32542;52.832;13.816;2023-01-26T10:41:28;102116.81;;;20.92;47.03
17254;BME280;32542;52.832;13.816;2023-01-26T10:44:32;102102.59;;;20.91;46.90
17254;BME280;32542;52.832;13.816;2023-01-26T10:47:36;102096.41;;;20.91;46.93
17254;BME280;32542;52.832;13.816;2023-01-26T10:50:40;102092.88;;;20.90;46.92
17254;BME280;32542;52.832;13.816;2023-01-26T10:53:43;102094.66;;;20.90;47.01
17254;BME280;32542;52.832;13.816;2023-01-26T10:56:48;102097.34;;;20.90;47.00
17254;BME280;32542;52.832;13.816;2023-01-26T10:59:54;102089.34;;;20.90;46.93
17254;BME280;32542;52.832;13.816;2023-01-26T11:03:04;102091.13;;;20.89;46.98
17254;BME280;32542;52.832;13.816;2023-01-26T11:06:14;102092.06;;;20.88;46.87
17254;BME280;32542;52.832;13.816;2023-01-26T11:09:20;102087.63;;;20.87;46.95
17254;BME280;32542;52.832;13.816;2023-01-26T11:12:24;102088.56;;;20.86;46.97
17254;BME280;32542;52.832;13.816;2023-01-26T11:15:34;102090.34;;;20.86;46.93
17254;BME280;32542;52.832;13.816;2023-01-26T11:18:41;102080.56;;;20.86;46.96
17254;BME280;32542;52.832;13.816;2023-01-26T11:21:52;102084.13;;;20.85;47.01
17254;BME280;32542;52.832;13.816;2023-01-26T11:25:02;102075.28;;;20.85;46.96
17254;BME280;32542;52.832;13.816;2023-01-26T11:28:23;102078.88;;;20.84;47.00
17254;BME280;32542;52.832;13.816;2023-01-26T11:31:41;102076.16;;;20.85;46.98
17254;BME280;32542;52.832;13.816;2023-01-26T11:34:56;102074.41;;;20.84;46.95
17254;BME280;32542;52.832;13.816;2023-01-26T11:38:19;102069.94;;;20.86;46.79
17254;BME280;32542;52.832;13.816;2023-01-26T11:41:32;102065.50;;;20.85;46.94
17254;BME280;32542;52.832;13.816;2023-01-26T11:44:49;102063.72;;;20.86;46.88
17254;BME280;32542;52.832;13.816;2023-01-26T11:48:08;102065.50;;;20.85;46.92
17254;BME280;32542;52.832;13.816;2023-01-26T11:51:20;102061.94;;;20.86;46.75
17254;BME280;32542;52.832;13.816;2023-01-26T11:54:42;102062.84;;;20.85;46.91
17254;BME280;32542;52.832;13.816;2023-01-26T11:58:01;102062.84;;;20.85;46.93
17254;BME280;32542;52.832;13.816;2023-01-26T12:01:12;102055.78;;;20.84;47.03
17254;BME280;32542;52.832;13.816;2023-01-26T12:04:18;102043.31;;;20.85;46.82
17254;BME280;32542;52.832;13.816;2023-01-26T12:07:26;102042.47;;;20.84;46.87
17254;BME280;32542;52.832;13.816;2023-01-26T12:10:36;102042.47;;;20.84;46.80
17254;BME280;32542;52.832;13.816;2023-01-26T12:13:44;102031.81;;;20.84;46.93
17254;BME280;32542;52.832;13.816;2023-01-26T12:17:00;102022.03;;;20.85;46.89
17254;BME280;32542;52.832;13.816;2023-01-26T12:20:25;102026.50;;;20.84;46.84
17254;BME280;32542;52.832;13.816;2023-01-26T12:23:41;102027.34;;;20.85;46.82
17254;BME280;32542;52.832;13.816;2023-01-26T12:26:49;102022.91;;;20.85;46.84
17254;BME280;32542;52.832;13.816;2023-01-26T12:30:01;102010.53;;;20.84;46.79
17254;BME280;32542;52.832;13.816;2023-01-26T12:33:07;102011.38;;;20.85;46.85
17254;BME280;32542;52.832;13.816;2023-01-26T12:36:24;102003.44;;;20.83;46.83
17254;BME280;32542;52.832;13.816;2023-01-26T12:39:32;102007.84;;;20.84;47.00
17254;BME280;32542;52.832;13.816;2023-01-26T12:42:43;102002.56;;;20.83;46.88
17254;BME280;32542;52.832;13.816;2023-01-26T12:45:50;102003.44;;;20.83;47.02
17254;BME280;32542;52.832;13.816;2023-01-26T12:49:00;102003.44;;;20.83;46.93
17254;BME280;32542;52.832;13.816;2023-01-26T12:52:09;102004.31;;;20.84;46.83
17254;BME280;32542;52.832;13.816;2023-01-26T12:55:17;102006.97;;;20.84;46.90
17254;BME280;32542;52.832;13.816;2023-01-26T12:58:25;102006.97;;;20.84;46.89
17254;BME280;32542;52.832;13.816;2023-01-26T13:01:38;102005.19;;;20.84;46.84
17254;BME280;32542;52.832;13.816;2023-01-26T13:04:42;102004.31;;;20.84;46.92
17254;BME280;32542;52.832;13.816;2023-01-26T13:07:47;102001.66;;;20.84;46.99
17254;BME280;32542;52.832;13.816;2023-01-26T13:10:50;102008.75;;;20.83;47.01
17254;BME280;32542;52.832;13.816;2023-01-26T13:13:55;102012.34;;;20.82;47.04
17254;BME280;32542;52.832;13.816;2023-01-26T13:20:45;102012.34;;;20.82;47.00
17254;BME280;32542;52.832;13.816;2023-01-26T13:23:49;102022.06;;;20.83;47.06
17254;BME280;32542;52.832;13.816;2023-01-26T13:26:54;102028.34;;;20.82;47.07
17254;BME280;32542;52.832;13.816;2023-01-26T13:30:00;102028.34;;;20.82;46.91
17254;BME280;32542;52.832;13.816;2023-01-26T13:33:12;102029.22;;;20.81;46.97
17254;BME280;32542;52.832;13.816;2023-01-26T13:36:17;102022.13;;;20.82;47.04
17254;BME280;32542;52.832;13.816;2023-01-26T13:39:27;102031.91;;;20.81;47.07
17254;BME280;32542;52.832;13.816;2023-01-26T13:42:35;102031.91;;;20.81;47.06
17254;BME280;32542;52.832;13.816;2023-01-26T13:45:49;102034.59;;;20.80;47.13
17254;BME280;32542;52.832;13.816;2023-01-26T13:48:55;102024.84;;;20.79;47.19
17254;BME280;32542;52.832;13.816;2023-01-26T13:51:58;102025.75;;;20.79;47.01
17254;BME280;32542;52.832;13.816;2023-01-26T13:55:01;102029.31;;;20.78;47.13
17254;BME280;32542;52.832;13.816;2023-01-26T13:58:10;102031.97;;;20.78;46.96
17254;BME280;32542;52.832;13.816;2023-01-26T14:01:15;102031.97;;;20.78;47.19
17254;BME280;32542;52.832;13.816;2023-01-26T14:04:20;102032.84;;;20.79;47.13
17254;BME280;32542;52.832;13.816;2023-01-26T14:07:26;102033.72;;;20.79;47.16
17254;BME280;32542;52.832;13.816;2023-01-26T14:10:29;102039.06;;;20.79;47.21
17254;BME280;32542;52.832;13.816;2023-01-26T14:13:35;102031.91;;;20.81;47.10
17254;BME280;32542;52.832;13.816;2023-01-26T14:16:40;102035.44;;;20.80;47.04
17254;BME280;32542;52.832;13.816;2023-01-26T14:19:43;102031.94;;;20.80;47.14
17254;BME280;32542;52.832;13.816;2023-01-26T14:23:01;102030.13;;;20.80;47.09
17254;BME280;32542;52.832;13.816;2023-01-26T14:26:07;102036.38;;;20.79;47.15
17254;BME280;32542;52.832;13.816;2023-01-26T14:29:20;102041.72;;;20.79;47.08
17254;BME280;32542;52.832;13.816;2023-01-26T14:32:25;102044.31;;;20.81;47.16
17254;BME280;32542;52.832;13.816;2023-01-26T14:35:30;102041.72;;;20.79;47.16
17254;BME280;32542;52.832;13.816;2023-01-26T14:38:40;102039.06;;;20.79;47.21
17254;BME280;32542;52.832;13.816;2023-01-26T14:41:45;102040.78;;;20.80;47.27
17254;BME280;32542;52.832;13.816;2023-01-26T14:44:49;102046.09;;;20.80;47.25
17254;BME280;32542;52.832;13.816;2023-01-26T14:47:53;102044.31;;;20.81;47.25
17254;BME280;32542;52.832;13.816;2023-01-26T14:50:57;102038.97;;;20.82;47.27
17254;BME280;32542;52.832;13.816;2023-01-26T14:54:02;102038.97;;;20.82;47.24
17254;BME280;32542;52.832;13.816;2023-01-26T14:57:06;102033.66;;;20.82;47.14
17254;BME280;32542;52.832;13.816;2023-01-26T15:00:21;102034.50;;;20.83;47.31
17254;BME280;32542;52.832;13.816;2023-01-26T15:03:31;102043.38;;;20.83;47.41
17254;BME280;32542;52.832;13.816;2023-01-26T15:06:34;102046.03;;;20.83;47.24
17254;BME280;32542;52.832;13.816;2023-01-26T15:09:37;102039.81;;;20.83;47.53
17254;BME280;32542;52.832;13.816;2023-01-26T15:12:40;102044.31;;;20.82;47.51
17254;BME280;32542;52.832;13.816;2023-01-26T15:15:45;102044.31;;;20.82;47.60
17254;BME280;32542;52.832;13.816;2023-01-26T15:18:58;102028.34;;;20.82;47.58
17254;BME280;32542;52.832;13.816;2023-01-26T15:22:02;102040.72;;;20.83;47.56
17254;BME280;32542;52.832;13.816;2023-01-26T15:25:16;102040.72;;;20.83;47.61
17254;BME280;32542;52.832;13.816;2023-01-26T15:28:22;102042.47;;;20.84;47.64
17254;BME280;32542;52.832;13.816;2023-01-26T15:31:29;102038.88;;;20.85;47.82
17254;BME280;32542;52.832;13.816;2023-01-26T15:34:36;102035.31;;;20.86;47.79
17254;BME280;32542;52.832;13.816;2023-01-26T15:37:39;102035.31;;;20.86;47.65
17254;BME280;32542;52.832;13.816;2023-01-26T15:40:42;102043.31;;;20.86;47.56
17254;BME280;32542;52.832;13.816;2023-01-26T15:43:45;102052.19;;;20.85;47.72
17254;BME280;32542;52.832;13.816;2023-01-26T15:46:47;102055.78;;;20.84;47.54
17254;BME280;32542;52.832;13.816;2023-01-26T15:49:52;102052.19;;;20.85;47.60
17254;BME280;32542;52.832;13.816;2023-01-26T15:52:55;102059.28;;;20.85;47.59
17254;BME280;32542;52.832;13.816;2023-01-26T15:55:58;102058.44;;;20.84;47.62
17254;BME280;32542;52.832;13.816;2023-01-26T15:59:02;102062.00;;;20.83;47.61
17254;BME280;32542;52.832;13.816;2023-01-26T16:02:10;102062.00;;;20.83;47.62
17254;BME280;32542;52.832;13.816;2023-01-26T16:05:18;102069.09;;;20.84;47.74
17254;BME280;32542;52.832;13.816;2023-01-26T16:08:21;102069.09;;;20.84;47.69
17254;BME280;32542;52.832;13.816;2023-01-26T16:11:27;102075.31;;;20.83;47.61
17254;BME280;32542;52.832;13.816;2023-01-26T16:14:31;102065.59;;;20.82;47.68